sensor_id;sensor_type;location;lat;lon;timestamp;P1;durP1;ratioP1;P2;durP2;ratioP2
13999;SDS011;7075;53.574;10.054;2023-02-28T00:00:08;213.73;;;202.90;;
13999;SDS011;7075;53.574;10.054;2023-02-28T00:02:40;214.00;;;203.18;;
13999;SDS011;7075;53.574;10.054;2023-02-28T00:05:07;216.77;;;205.55;;
13999;SDS011;7075;53.574;10.054;2023-02-28T00:07:34;215.10;;;203.95;;
13999;SDS011;7075;53.574;10.054;2023-02-28T00:10:00;219.32;;;207.93;;
13999;SDS011;7075;53.574;10.054;2023-02-28T00:12:26;220.98;;;209.80;;
13999;SDS011;7075;53.574;10.054;2023-02-28T00:14:52;231.60;;;219.70;;
13999;SDS011;7075;53.574;10.054;2023-02-28T00:17:17;233.82;;;222.00;;
13999;SDS011;7075;53.574;10.054;2023-02-28T00:19:46;228.40;;;216.85;;
13999;SDS011;7075;53.574;10.054;2023-02-28T00:22:13;213.18;;;202.25;;
13999;SDS011;7075;53.574;10.054;2023-02-28T00:24:39;213.75;;;202.77;;
13999;SDS011;7075;53.574;10.054;2023-02-28T00:27:05;211.48;;;200.65;;
13999;SDS011;7075;53.574;10.054;2023-02-28T00:29:30;205.05;;;194.55;;
13999;SDS011;7075;53.574;10.054;2023-02-28T00:31:56;204.80;;;194.43;;
13999;SDS011;7075;53.574;10.054;2023-02-28T00:34:22;214.00;;;203.07;;
13999;SDS011;7075;53.574;10.054;2023-02-28T00:36:47;223.53;;;212.20;;
13999;SDS011;7075;53.574;10.054;2023-02-28T00:39:15;231.67;;;219.83;;
13999;SDS011;7075;53.574;10.054;2023-02-28T00:41:41;216.77;;;205.80;;
13999;SDS011;7075;53.574;10.054;2023-02-28T00:44:07;221.98;;;210.68;;
13999;SDS011;7075;53.574;10.054;2023-02-28T00:46:32;229.63;;;218.05;;
13999;SDS011;7075;53.574;10.054;2023-02-28T00:48:58;215.15;;;204.15;;
13999;SDS011;7075;53.574;10.054;2023-02-28T00:51:24;241.88;;;229.68;;
13999;SDS011;7075;53.574;10.054;2023-02-28T00:53:49;233.03;;;221.13;;
13999;SDS011;7075;53.574;10.054;2023-02-28T00:56:15;231.60;;;219.85;;
13999;SDS011;7075;53.574;10.054;2023-02-28T00:58:41;240.03;;;227.80;;
13999;SDS011;7075;53.574;10.054;2023-02-28T01:01:07;239.70;;;227.60;;
13999;SDS011;7075;53.574;10.054;2023-02-28T01:03:33;250.57;;;237.82;;
13999;SDS011;7075;53.574;10.054;2023-02-28T01:05:59;244.38;;;231.77;;
13999;SDS011;7075;53.574;10.054;2023-02-28T01:08:25;245.95;;;233.48;;
13999;SDS011;7075;53.574;10.054;2023-02-28T01:10:51;245.45;;;232.95;;
13999;SDS011;7075;53.574;10.054;2023-02-28T01:13:17;263.27;;;249.77;;
13999;SDS011;7075;53.574;10.054;2023-02-28T01:15:45;258.73;;;245.85;;
13999;SDS011;7075;53.574;10.054;2023-02-28T01:18:15;249.82;;;237.18;;
13999;SDS011;7075;53.574;10.054;2023-02-28T01:20:41;253.18;;;240.38;;
13999;SDS011;7075;53.574;10.054;2023-02-28T01:23:07;249.88;;;237.10;;
13999;SDS011;7075;53.574;10.054;2023-02-28T01:25:36;252.32;;;239.43;;
13999;SDS011;7075;53.574;10.054;2023-02-28T01:28:02;259.23;;;246.07;;
13999;SDS011;7075;53.574;10.054;2023-02-28T01:30:27;254.82;;;241.77;;
13999;SDS011;7075;53.574;10.054;2023-02-28T01:32:53;254.85;;;241.88;;
13999;SDS011;7075;53.574;10.054;2023-02-28T01:35:19;256.95;;;243.90;;
13999;SDS011;7075;53.574;10.054;2023-02-28T01:37:45;272.65;;;258.77;;
13999;SDS011;7075;53.574;10.054;2023-02-28T01:40:11;260.23;;;246.98;;
13999;SDS011;7075;53.574;10.054;2023-02-28T01:42:37;269.35;;;255.50;;
13999;SDS011;7075;53.574;10.054;2023-02-28T01:45:14;268.20;;;254.67;;
13999;SDS011;7075;53.574;10.054;2023-02-28T01:47:45;261.17;;;247.93;;
13999;SDS011;7075;53.574;10.054;2023-02-28T01:50:14;266.70;;;253.10;;
13999;SDS011;7075;53.574;10.054;2023-02-28T01:52:43;273.40;;;259.40;;
13999;SDS011;7075;53.574;10.054;2023-02-28T01:55:11;271.27;;;257.37;;
13999;SDS011;7075;53.574;10.054;2023-02-28T01:57:43;274.55;;;260.30;;
13999;SDS011;7075;53.574;10.054;2023-02-28T02:00:14;274.92;;;260.80;;
13999;SDS011;7075;53.574;10.054;2023-02-28T02:02:41;281.25;;;266.58;;
13999;SDS011;7075;53.574;10.054;2023-02-28T02:05:12;284.73;;;270.07;;
13999;SDS011;7075;53.574;10.054;2023-02-28T02:07:42;269.60;;;255.80;;
13999;SDS011;7075;53.574;10.054;2023-02-28T02:10:11;274.60;;;260.52;;
13999;SDS011;7075;53.574;10.054;2023-02-28T02:15:44;280.35;;;265.80;;
13999;SDS011;7075;53.574;10.054;2023-02-28T02:26:16;268.15;;;254.20;;
13999;SDS011;7075;53.574;10.054;2023-02-28T02:35:01;271.13;;;257.00;;
13999;SDS011;7075;53.574;10.054;2023-02-28T02:37:52;286.77;;;271.58;;
13999;SDS011;7075;53.574;10.054;2023-02-28T02:40:36;299.95;;;283.98;;
13999;SDS011;7075;53.574;10.054;2023-02-28T02:43:22;282.58;;;267.73;;
13999;SDS011;7075;53.574;10.054;2023-02-28T02:45:55;295.35;;;279.63;;
13999;SDS011;7075;53.574;10.054;2023-02-28T02:48:36;283.15;;;268.10;;
13999;SDS011;7075;53.574;10.054;2023-02-28T02:51:13;286.15;;;271.10;;
13999;SDS011;7075;53.574;10.054;2023-02-28T02:53:44;287.48;;;272.00;;
13999;SDS011;7075;53.574;10.054;2023-02-28T02:56:18;311.40;;;294.63;;
13999;SDS011;7075;53.574;10.054;2023-02-28T02:58:48;312.48;;;295.85;;
13999;SDS011;7075;53.574;10.054;2023-02-28T03:01:18;288.40;;;273.00;;
13999;SDS011;7075;53.574;10.054;2023-02-28T03:03:55;315.08;;;298.20;;
13999;SDS011;7075;53.574;10.054;2023-02-28T03:06:23;320.63;;;303.75;;
13999;SDS011;7075;53.574;10.054;2023-02-28T03:08:50;293.08;;;277.88;;
13999;SDS011;7075;53.574;10.054;2023-02-28T03:11:15;290.63;;;275.35;;
13999;SDS011;7075;53.574;10.054;2023-02-28T03:19:30;236.93;;;224.53;;
13999;SDS011;7075;53.574;10.054;2023-02-28T03:22:23;239.48;;;227.13;;
13999;SDS011;7075;53.574;10.054;2023-02-28T03:25:16;190.20;;;180.13;;
13999;SDS011;7075;53.574;10.054;2023-02-28T03:28:05;199.55;;;189.32;;
13999;SDS011;7075;53.574;10.054;2023-02-28T03:30:45;162.88;;;154.32;;
13999;SDS011;7075;53.574;10.054;2023-02-28T03:33:23;140.10;;;132.87;;
13999;SDS011;7075;53.574;10.054;2023-02-28T03:35:57;131.90;;;125.00;;
13999;SDS011;7075;53.574;10.054;2023-02-28T03:40:55;144.05;;;136.55;;
13999;SDS011;7075;53.574;10.054;2023-02-28T03:43:27;130.13;;;123.40;;
13999;SDS011;7075;53.574;10.054;2023-02-28T03:45:57;137.88;;;130.75;;
13999;SDS011;7075;53.574;10.054;2023-02-28T03:48:27;123.93;;;117.53;;
13999;SDS011;7075;53.574;10.054;2023-02-28T03:51:01;128.52;;;121.75;;
13999;SDS011;7075;53.574;10.054;2023-02-28T03:53:36;117.60;;;111.45;;
13999;SDS011;7075;53.574;10.054;2023-02-28T03:56:09;116.95;;;110.80;;
13999;SDS011;7075;53.574;10.054;2023-02-28T03:58:46;122.57;;;116.25;;
13999;SDS011;7075;53.574;10.054;2023-02-28T04:01:19;118.47;;;112.32;;
13999;SDS011;7075;53.574;10.054;2023-02-28T04:03:52;119.22;;;112.95;;
13999;SDS011;7075;53.574;10.054;2023-02-28T04:06:19;105.38;;;99.95;;
13999;SDS011;7075;53.574;10.054;2023-02-28T04:08:47;110.65;;;104.78;;
13999;SDS011;7075;53.574;10.054;2023-02-28T04:13:49;103.10;;;97.72;;
13999;SDS011;7075;53.574;10.054;2023-02-28T04:16:15;90.20;;;85.38;;
13999;SDS011;7075;53.574;10.054;2023-02-28T04:18:43;87.43;;;82.88;;
13999;SDS011;7075;53.574;10.054;2023-02-28T04:21:09;91.72;;;86.88;;
13999;SDS011;7075;53.574;10.054;2023-02-28T04:23:36;92.20;;;86.93;;
13999;SDS011;7075;53.574;10.054;2023-02-28T04:26:01;92.15;;;87.13;;
13999;SDS011;7075;53.574;10.054;2023-02-28T04:28:27;89.60;;;84.63;;
13999;SDS011;7075;53.574;10.054;2023-02-28T04:30:56;90.87;;;86.17;;
13999;SDS011;7075;53.574;10.054;2023-02-28T04:33:24;106.85;;;101.20;;
13999;SDS011;7075;53.574;10.054;2023-02-28T04:36:03;108.90;;;103.22;;
13999;SDS011;7075;53.574;10.054;2023-02-28T04:38:34;114.80;;;108.82;;
13999;SDS011;7075;53.574;10.054;2023-02-28T04:41:02;103.63;;;98.13;;
13999;SDS011;7075;53.574;10.054;2023-02-28T04:43:28;103.20;;;97.80;;
13999;SDS011;7075;53.574;10.054;2023-02-28T04:45:58;98.57;;;93.15;;
13999;SDS011;7075;53.574;10.054;2023-02-28T04:48:29;88.22;;;83.50;;
13999;SDS011;7075;53.574;10.054;2023-02-28T04:51:04;87.25;;;82.60;;
13999;SDS011;7075;53.574;10.054;2023-02-28T04:53:32;83.68;;;79.25;;
13999;SDS011;7075;53.574;10.054;2023-02-28T04:55:59;92.15;;;87.28;;
13999;SDS011;7075;53.574;10.054;2023-02-28T04:58:25;96.50;;;91.47;;
13999;SDS011;7075;53.574;10.054;2023-02-28T05:00:52;99.32;;;94.07;;
13999;SDS011;7075;53.574;10.054;2023-02-28T05:03:18;97.50;;;92.38;;
13999;SDS011;7075;53.574;10.054;2023-02-28T05:05:45;104.70;;;98.78;;
13999;SDS011;7075;53.574;10.054;2023-02-28T05:08:11;95.80;;;90.77;;
13999;SDS011;7075;53.574;10.054;2023-02-28T05:10:36;88.07;;;83.40;;
13999;SDS011;7075;53.574;10.054;2023-02-28T05:13:02;90.50;;;85.77;;
13999;SDS011;7075;53.574;10.054;2023-02-28T05:15:28;88.68;;;84.07;;
13999;SDS011;7075;53.574;10.054;2023-02-28T05:17:53;85.87;;;81.30;;
13999;SDS011;7075;53.574;10.054;2023-02-28T05:20:19;88.03;;;83.33;;
13999;SDS011;7075;53.574;10.054;2023-02-28T05:22:45;91.45;;;86.47;;
13999;SDS011;7075;53.574;10.054;2023-02-28T05:25:18;95.40;;;90.32;;
13999;SDS011;7075;53.574;10.054;2023-02-28T05:27:46;86.00;;;81.45;;
13999;SDS011;7075;53.574;10.054;2023-02-28T05:30:12;90.60;;;85.70;;
13999;SDS011;7075;53.574;10.054;2023-02-28T05:32:38;91.23;;;86.43;;
13999;SDS011;7075;53.574;10.054;2023-02-28T05:35:07;98.22;;;93.13;;
13999;SDS011;7075;53.574;10.054;2023-02-28T05:37:33;98.93;;;93.72;;
13999;SDS011;7075;53.574;10.054;2023-02-28T05:39:59;99.13;;;93.97;;
13999;SDS011;7075;53.574;10.054;2023-02-28T05:42:25;93.72;;;89.00;;
13999;SDS011;7075;53.574;10.054;2023-02-28T05:44:50;94.07;;;89.22;;
13999;SDS011;7075;53.574;10.054;2023-02-28T05:47:16;94.43;;;89.43;;
13999;SDS011;7075;53.574;10.054;2023-02-28T05:49:42;94.28;;;89.22;;
13999;SDS011;7075;53.574;10.054;2023-02-28T05:52:08;91.63;;;86.72;;
13999;SDS011;7075;53.574;10.054;2023-02-28T05:54:34;96.25;;;91.18;;
13999;SDS011;7075;53.574;10.054;2023-02-28T05:56:59;93.43;;;88.50;;
13999;SDS011;7075;53.574;10.054;2023-02-28T05:59:25;92.07;;;87.30;;
13999;SDS011;7075;53.574;10.054;2023-02-28T06:01:50;91.70;;;86.87;;
13999;SDS011;7075;53.574;10.054;2023-02-28T06:04:18;93.22;;;88.32;;
13999;SDS011;7075;53.574;10.054;2023-02-28T06:06:50;96.22;;;91.03;;
13999;SDS011;7075;53.574;10.054;2023-02-28T06:09:17;100.13;;;94.87;;
13999;SDS011;7075;53.574;10.054;2023-02-28T06:11:44;98.00;;;92.97;;
13999;SDS011;7075;53.574;10.054;2023-02-28T06:14:14;98.88;;;93.78;;
13999;SDS011;7075;53.574;10.054;2023-02-28T06:16:42;92.15;;;87.47;;
13999;SDS011;7075;53.574;10.054;2023-02-28T06:19:08;100.80;;;95.40;;
13999;SDS011;7075;53.574;10.054;2023-02-28T06:21:34;102.25;;;96.88;;
13999;SDS011;7075;53.574;10.054;2023-02-28T06:24:00;97.30;;;92.20;;
13999;SDS011;7075;53.574;10.054;2023-02-28T06:26:27;100.45;;;95.10;;
13999;SDS011;7075;53.574;10.054;2023-02-28T06:28:52;94.88;;;89.93;;
13999;SDS011;7075;53.574;10.054;2023-02-28T06:31:18;99.57;;;94.37;;
13999;SDS011;7075;53.574;10.054;2023-02-28T06:33:45;100.40;;;95.18;;
13999;SDS011;7075;53.574;10.054;2023-02-28T06:36:11;102.65;;;96.90;;
13999;SDS011;7075;53.574;10.054;2023-02-28T06:38:38;106.47;;;100.93;;
13999;SDS011;7075;53.574;10.054;2023-02-28T06:41:05;108.43;;;102.55;;
13999;SDS011;7075;53.574;10.054;2023-02-28T06:43:32;92.32;;;87.20;;
13999;SDS011;7075;53.574;10.054;2023-02-28T06:46:00;105.85;;;100.20;;
13999;SDS011;7075;53.574;10.054;2023-02-28T06:48:27;113.38;;;107.55;;
13999;SDS011;7075;53.574;10.054;2023-02-28T06:51:01;112.05;;;106.15;;
13999;SDS011;7075;53.574;10.054;2023-02-28T06:53:33;152.82;;;144.77;;
13999;SDS011;7075;53.574;10.054;2023-02-28T06:55:59;160.65;;;151.82;;
13999;SDS011;7075;53.574;10.054;2023-02-28T06:58:28;145.25;;;137.73;;
13999;SDS011;7075;53.574;10.054;2023-02-28T07:00:54;136.57;;;129.33;;
13999;SDS011;7075;53.574;10.054;2023-02-28T07:03:20;161.87;;;153.23;;
13999;SDS011;7075;53.574;10.054;2023-02-28T07:05:45;161.52;;;152.73;;
13999;SDS011;7075;53.574;10.054;2023-02-28T07:08:11;161.80;;;153.30;;
13999;SDS011;7075;53.574;10.054;2023-02-28T07:10:37;169.23;;;159.68;;
13999;SDS011;7075;53.574;10.054;2023-02-28T07:13:03;177.55;;;167.93;;
13999;SDS011;7075;53.574;10.054;2023-02-28T07:15:29;165.88;;;157.02;;
13999;SDS011;7075;53.574;10.054;2023-02-28T07:17:55;143.53;;;135.27;;
13999;SDS011;7075;53.574;10.054;2023-02-28T07:20:21;122.87;;;116.27;;
13999;SDS011;7075;53.574;10.054;2023-02-28T07:22:48;120.80;;;114.03;;
13999;SDS011;7075;53.574;10.054;2023-02-28T07:25:20;111.93;;;105.63;;
13999;SDS011;7075;53.574;10.054;2023-02-28T07:27:50;110.78;;;104.68;;
13999;SDS011;7075;53.574;10.054;2023-02-28T07:30:16;100.30;;;94.90;;
13999;SDS011;7075;53.574;10.054;2023-02-28T07:32:42;101.83;;;96.13;;
13999;SDS011;7075;53.574;10.054;2023-02-28T07:35:08;117.87;;;110.87;;
13999;SDS011;7075;53.574;10.054;2023-02-28T07:37:33;183.07;;;173.27;;
13999;SDS011;7075;53.574;10.054;2023-02-28T07:40:01;246.00;;;233.10;;
13999;SDS011;7075;53.574;10.054;2023-02-28T07:42:33;285.05;;;270.63;;
13999;SDS011;7075;53.574;10.054;2023-02-28T07:45:02;257.13;;;243.73;;
13999;SDS011;7075;53.574;10.054;2023-02-28T07:47:29;251.50;;;238.48;;
13999;SDS011;7075;53.574;10.054;2023-02-28T07:49:55;227.97;;;216.23;;
13999;SDS011;7075;53.574;10.054;2023-02-28T07:52:20;211.47;;;200.30;;
13999;SDS011;7075;53.574;10.054;2023-02-28T07:54:48;202.50;;;191.35;;
13999;SDS011;7075;53.574;10.054;2023-02-28T07:57:14;190.77;;;180.55;;
13999;SDS011;7075;53.574;10.054;2023-02-28T07:59:40;187.33;;;177.07;;
13999;SDS011;7075;53.574;10.054;2023-02-28T08:02:05;189.82;;;179.43;;
13999;SDS011;7075;53.574;10.054;2023-02-28T08:04:31;154.93;;;146.43;;
13999;SDS011;7075;53.574;10.054;2023-02-28T08:06:57;139.67;;;131.63;;
13999;SDS011;7075;53.574;10.054;2023-02-28T08:09:23;119.87;;;113.07;;
13999;SDS011;7075;53.574;10.054;2023-02-28T08:11:49;119.13;;;112.70;;
13999;SDS011;7075;53.574;10.054;2023-02-28T08:14:15;119.30;;;112.83;;
13999;SDS011;7075;53.574;10.054;2023-02-28T08:16:40;109.90;;;103.80;;
13999;SDS011;7075;53.574;10.054;2023-02-28T08:19:08;114.30;;;107.95;;
13999;SDS011;7075;53.574;10.054;2023-02-28T08:21:34;111.55;;;105.60;;
13999;SDS011;7075;53.574;10.054;2023-02-28T08:23:59;103.00;;;97.50;;
13999;SDS011;7075;53.574;10.054;2023-02-28T08:26:25;110.03;;;103.72;;
13999;SDS011;7075;53.574;10.054;2023-02-28T08:28:51;107.40;;;101.60;;
13999;SDS011;7075;53.574;10.054;2023-02-28T08:31:17;111.15;;;105.20;;
13999;SDS011;7075;53.574;10.054;2023-02-28T08:33:44;112.72;;;106.40;;
13999;SDS011;7075;53.574;10.054;2023-02-28T08:36:10;107.82;;;101.90;;
13999;SDS011;7075;53.574;10.054;2023-02-28T08:38:40;117.57;;;110.80;;
13999;SDS011;7075;53.574;10.054;2023-02-28T08:41:07;118.00;;;111.50;;
13999;SDS011;7075;53.574;10.054;2023-02-28T08:43:35;120.72;;;114.03;;
13999;SDS011;7075;53.574;10.054;2023-02-28T08:46:02;120.75;;;114.18;;
13999;SDS011;7075;53.574;10.054;2023-02-28T08:48:29;133.70;;;126.30;;
13999;SDS011;7075;53.574;10.054;2023-02-28T08:50:58;130.30;;;123.38;;
13999;SDS011;7075;53.574;10.054;2023-02-28T08:53:26;133.48;;;126.40;;
13999;SDS011;7075;53.574;10.054;2023-02-28T08:55:58;134.70;;;127.45;;
13999;SDS011;7075;53.574;10.054;2023-02-28T08:58:25;138.37;;;130.83;;
13999;SDS011;7075;53.574;10.054;2023-02-28T09:00:52;130.70;;;123.03;;
13999;SDS011;7075;53.574;10.054;2023-02-28T09:03:18;127.37;;;120.43;;
13999;SDS011;7075;53.574;10.054;2023-02-28T09:05:58;129.60;;;122.50;;
13999;SDS011;7075;53.574;10.054;2023-02-28T09:08:26;133.13;;;125.57;;
13999;SDS011;7075;53.574;10.054;2023-02-28T09:10:52;126.33;;;119.73;;
13999;SDS011;7075;53.574;10.054;2023-02-28T09:13:19;120.30;;;114.07;;
13999;SDS011;7075;53.574;10.054;2023-02-28T09:15:45;97.47;;;92.30;;
13999;SDS011;7075;53.574;10.054;2023-02-28T09:18:11;104.20;;;98.57;;
13999;SDS011;7075;53.574;10.054;2023-02-28T09:20:37;86.15;;;81.35;;
13999;SDS011;7075;53.574;10.054;2023-02-28T09:23:04;89.78;;;84.97;;
13999;SDS011;7075;53.574;10.054;2023-02-28T09:25:31;88.67;;;84.07;;
13999;SDS011;7075;53.574;10.054;2023-02-28T09:27:56;88.97;;;84.37;;
13999;SDS011;7075;53.574;10.054;2023-02-28T09:30:22;92.80;;;87.93;;
13999;SDS011;7075;53.574;10.054;2023-02-28T09:32:47;96.83;;;91.57;;
13999;SDS011;7075;53.574;10.054;2023-02-28T09:35:17;92.37;;;87.43;;
13999;SDS011;7075;53.574;10.054;2023-02-28T09:37:43;101.22;;;96.13;;
13999;SDS011;7075;53.574;10.054;2023-02-28T09:40:09;101.30;;;96.10;;
13999;SDS011;7075;53.574;10.054;2023-02-28T09:42:37;125.35;;;118.85;;
13999;SDS011;7075;53.574;10.054;2023-02-28T09:45:11;157.57;;;149.73;;
13999;SDS011;7075;53.574;10.054;2023-02-28T09:47:50;154.43;;;146.73;;
13999;SDS011;7075;53.574;10.054;2023-02-28T09:50:27;190.85;;;181.52;;
13999;SDS011;7075;53.574;10.054;2023-02-28T09:52:57;198.93;;;189.23;;
13999;SDS011;7075;53.574;10.054;2023-02-28T09:57:53;191.60;;;182.18;;
13999;SDS011;7075;53.574;10.054;2023-02-28T10:03:22;177.10;;;168.38;;
13999;SDS011;7075;53.574;10.054;2023-02-28T10:06:03;159.00;;;150.73;;
13999;SDS011;7075;53.574;10.054;2023-02-28T10:08:45;167.55;;;159.27;;
13999;SDS011;7075;53.574;10.054;2023-02-28T10:11:20;176.65;;;168.02;;
13999;SDS011;7075;53.574;10.054;2023-02-28T10:13:50;183.55;;;174.45;;
13999;SDS011;7075;53.574;10.054;2023-02-28T10:16:25;192.30;;;182.85;;
13999;SDS011;7075;53.574;10.054;2023-02-28T10:19:03;196.35;;;186.70;;
13999;SDS011;7075;53.574;10.054;2023-02-28T10:21:59;204.27;;;194.23;;
13999;SDS011;7075;53.574;10.054;2023-02-28T10:24:39;204.53;;;194.37;;
13999;SDS011;7075;53.574;10.054;2023-02-28T10:29:45;196.30;;;186.50;;
13999;SDS011;7075;53.574;10.054;2023-02-28T10:32:14;199.15;;;189.18;;
13999;SDS011;7075;53.574;10.054;2023-02-28T10:34:42;208.50;;;198.23;;
13999;SDS011;7075;53.574;10.054;2023-02-28T10:37:08;221.67;;;210.80;;
13999;SDS011;7075;53.574;10.054;2023-02-28T10:39:46;180.73;;;171.63;;
13999;SDS011;7075;53.574;10.054;2023-02-28T10:42:25;206.60;;;196.35;;
13999;SDS011;7075;53.574;10.054;2023-02-28T10:45:04;231.60;;;220.10;;
13999;SDS011;7075;53.574;10.054;2023-02-28T10:47:41;248.10;;;235.68;;
13999;SDS011;7075;53.574;10.054;2023-02-28T10:50:34;246.20;;;234.30;;
13999;SDS011;7075;53.574;10.054;2023-02-28T10:55:35;215.23;;;204.53;;
13999;SDS011;7075;53.574;10.054;2023-02-28T10:58:01;252.68;;;240.50;;
13999;SDS011;7075;53.574;10.054;2023-02-28T11:00:31;200.95;;;190.85;;
13999;SDS011;7075;53.574;10.054;2023-02-28T11:02:59;201.85;;;191.85;;
13999;SDS011;7075;53.574;10.054;2023-02-28T11:07:54;196.35;;;186.52;;
13999;SDS011;7075;53.574;10.054;2023-02-28T11:10:28;236.73;;;224.93;;
13999;SDS011;7075;53.574;10.054;2023-02-28T11:12:59;270.05;;;256.55;;
13999;SDS011;7075;53.574;10.054;2023-02-28T11:15:35;293.10;;;278.45;;
13999;SDS011;7075;53.574;10.054;2023-02-28T11:18:01;282.23;;;268.13;;
13999;SDS011;7075;53.574;10.054;2023-02-28T11:20:43;316.00;;;300.02;;
13999;SDS011;7075;53.574;10.054;2023-02-28T11:23:16;269.63;;;255.88;;
13999;SDS011;7075;53.574;10.054;2023-02-28T11:25:48;247.30;;;234.70;;
13999;SDS011;7075;53.574;10.054;2023-02-28T11:31:36;290.10;;;275.63;;
13999;SDS011;7075;53.574;10.054;2023-02-28T11:33:50;309.23;;;293.92;;
13999;SDS011;7075;53.574;10.054;2023-02-28T11:38:44;301.52;;;286.30;;
13999;SDS011;7075;53.574;10.054;2023-02-28T11:41:17;306.48;;;290.98;;
13999;SDS011;7075;53.574;10.054;2023-02-28T11:44:23;332.30;;;315.13;;
13999;SDS011;7075;53.574;10.054;2023-02-28T11:47:15;285.20;;;270.13;;
13999;SDS011;7075;53.574;10.054;2023-02-28T12:11:55;365.13;;;346.13;;
13999;SDS011;7075;53.574;10.054;2023-02-28T12:20:07;389.45;;;368.70;;
13999;SDS011;7075;53.574;10.054;2023-02-28T12:28:25;370.08;;;350.13;;
13999;SDS011;7075;53.574;10.054;2023-02-28T12:31:00;369.77;;;349.30;;
13999;SDS011;7075;53.574;10.054;2023-02-28T12:33:39;405.90;;;383.42;;
13999;SDS011;7075;53.574;10.054;2023-02-28T12:36:14;403.30;;;381.03;;
13999;SDS011;7075;53.574;10.054;2023-02-28T12:46:51;387.52;;;366.27;;
13999;SDS011;7075;53.574;10.054;2023-02-28T12:49:31;352.45;;;332.95;;
13999;SDS011;7075;53.574;10.054;2023-02-28T12:52:21;367.38;;;347.45;;
13999;SDS011;7075;53.574;10.054;2023-02-28T12:54:55;332.27;;;314.37;;
13999;SDS011;7075;53.574;10.054;2023-02-28T12:59:53;394.70;;;373.05;;
13999;SDS011;7075;53.574;10.054;2023-02-28T13:10:39;343.70;;;324.58;;
13999;SDS011;7075;53.574;10.054;2023-02-28T13:13:05;367.57;;;346.80;;
13999;SDS011;7075;53.574;10.054;2023-02-28T13:15:31;357.77;;;337.92;;
13999;SDS011;7075;53.574;10.054;2023-02-28T13:18:00;383.85;;;362.63;;
13999;SDS011;7075;53.574;10.054;2023-02-28T13:23:01;351.83;;;332.40;;
13999;SDS011;7075;53.574;10.054;2023-02-28T13:28:00;312.17;;;295.67;;
13999;SDS011;7075;53.574;10.054;2023-02-28T13:38:43;339.98;;;320.80;;
13999;SDS011;7075;53.574;10.054;2023-02-28T13:44:06;313.90;;;296.33;;
13999;SDS011;7075;53.574;10.054;2023-02-28T13:46:32;309.10;;;291.25;;
13999;SDS011;7075;53.574;10.054;2023-02-28T14:00:46;302.90;;;285.75;;
13999;SDS011;7075;53.574;10.054;2023-02-28T14:06:30;348.23;;;328.83;;
13999;SDS011;7075;53.574;10.054;2023-02-28T14:09:18;352.02;;;332.48;;
13999;SDS011;7075;53.574;10.054;2023-02-28T14:11:52;347.70;;;328.73;;
13999;SDS011;7075;53.574;10.054;2023-02-28T14:17:03;332.10;;;314.02;;
13999;SDS011;7075;53.574;10.054;2023-02-28T14:19:31;338.30;;;319.40;;
13999;SDS011;7075;53.574;10.054;2023-02-28T14:25:23;310.40;;;293.00;;
13999;SDS011;7075;53.574;10.054;2023-02-28T14:28:18;300.63;;;283.50;;
13999;SDS011;7075;53.574;10.054;2023-02-28T14:31:07;277.50;;;261.83;;
13999;SDS011;7075;53.574;10.054;2023-02-28T14:33:42;265.58;;;250.23;;
13999;SDS011;7075;53.574;10.054;2023-02-28T14:36:32;303.38;;;286.50;;
13999;SDS011;7075;53.574;10.054;2023-02-28T14:39:05;271.90;;;256.70;;
13999;SDS011;7075;53.574;10.054;2023-02-28T14:41:33;301.33;;;284.27;;
13999;SDS011;7075;53.574;10.054;2023-02-28T14:44:12;275.92;;;260.63;;
13999;SDS011;7075;53.574;10.054;2023-02-28T14:46:59;338.90;;;320.20;;
13999;SDS011;7075;53.574;10.054;2023-02-28T14:49:35;353.23;;;333.45;;
13999;SDS011;7075;53.574;10.054;2023-02-28T14:54:29;367.77;;;347.63;;
13999;SDS011;7075;53.574;10.054;2023-02-28T14:56:54;341.10;;;322.42;;
13999;SDS011;7075;53.574;10.054;2023-02-28T14:59:31;353.77;;;334.00;;
13999;SDS011;7075;53.574;10.054;2023-02-28T15:02:19;316.95;;;299.48;;
13999;SDS011;7075;53.574;10.054;2023-02-28T15:04:58;323.05;;;305.55;;
13999;SDS011;7075;53.574;10.054;2023-02-28T15:07:27;285.63;;;270.08;;
13999;SDS011;7075;53.574;10.054;2023-02-28T15:10:06;285.90;;;270.17;;
13999;SDS011;7075;53.574;10.054;2023-02-28T15:12:46;288.08;;;272.35;;
13999;SDS011;7075;53.574;10.054;2023-02-28T15:18:08;307.17;;;290.93;;
13999;SDS011;7075;53.574;10.054;2023-02-28T15:20:57;299.85;;;284.23;;
13999;SDS011;7075;53.574;10.054;2023-02-28T15:23:26;316.60;;;300.02;;
13999;SDS011;7075;53.574;10.054;2023-02-28T15:25:54;334.40;;;316.38;;
13999;SDS011;7075;53.574;10.054;2023-02-28T15:28:20;355.90;;;336.63;;
13999;SDS011;7075;53.574;10.054;2023-02-28T15:30:52;345.00;;;326.05;;
13999;SDS011;7075;53.574;10.054;2023-02-28T15:33:24;339.85;;;321.40;;
13999;SDS011;7075;53.574;10.054;2023-02-28T15:39:17;335.27;;;316.98;;
13999;SDS011;7075;53.574;10.054;2023-02-28T15:42:09;341.63;;;322.63;;
13999;SDS011;7075;53.574;10.054;2023-02-28T15:44:44;329.47;;;311.33;;
13999;SDS011;7075;53.574;10.054;2023-02-28T15:47:18;325.77;;;307.98;;
13999;SDS011;7075;53.574;10.054;2023-02-28T15:49:49;319.42;;;302.45;;
13999;SDS011;7075;53.574;10.054;2023-02-28T15:52:27;329.42;;;311.42;;
13999;SDS011;7075;53.574;10.054;2023-02-28T15:54:58;327.30;;;309.57;;
13999;SDS011;7075;53.574;10.054;2023-02-28T15:57:57;324.98;;;306.83;;
13999;SDS011;7075;53.574;10.054;2023-02-28T16:00:30;332.02;;;313.33;;
13999;SDS011;7075;53.574;10.054;2023-02-28T16:02:59;343.15;;;323.75;;
13999;SDS011;7075;53.574;10.054;2023-02-28T16:05:26;348.67;;;329.37;;
13999;SDS011;7075;53.574;10.054;2023-02-28T16:07:56;334.90;;;317.13;;
13999;SDS011;7075;53.574;10.054;2023-02-28T16:10:24;390.45;;;369.15;;
13999;SDS011;7075;53.574;10.054;2023-02-28T16:12:54;345.80;;;326.85;;
13999;SDS011;7075;53.574;10.054;2023-02-28T16:15:22;353.25;;;334.40;;
13999;SDS011;7075;53.574;10.054;2023-02-28T16:17:55;353.42;;;334.30;;
13999;SDS011;7075;53.574;10.054;2023-02-28T16:20:24;339.90;;;321.52;;
13999;SDS011;7075;53.574;10.054;2023-02-28T16:22:51;336.75;;;318.67;;
13999;SDS011;7075;53.574;10.054;2023-02-28T16:25:18;339.17;;;321.10;;
13999;SDS011;7075;53.574;10.054;2023-02-28T16:27:48;377.95;;;357.77;;
13999;SDS011;7075;53.574;10.054;2023-02-28T16:30:22;318.65;;;301.80;;
13999;SDS011;7075;53.574;10.054;2023-02-28T16:32:51;397.07;;;375.70;;
13999;SDS011;7075;53.574;10.054;2023-02-28T16:35:18;365.45;;;345.88;;
13999;SDS011;7075;53.574;10.054;2023-02-28T16:37:45;326.40;;;309.35;;
13999;SDS011;7075;53.574;10.054;2023-02-28T16:40:15;395.23;;;373.90;;
13999;SDS011;7075;53.574;10.054;2023-02-28T16:42:42;400.85;;;378.77;;